Time;durP1;ratioP1;P1;durP2;ratioP2;P2;SDS_P1;SDS_P2;PMS_P1;PMS_P2;Temp;Humidity;BMP_temperature;BMP_pressure;BME280_temperature;BME280_humidity;BME280_pressure;Samples;Min_cycle;Max_cycle;Signal;HPM_P1;HPM_P2
2022/03/30 00:01:26;;;;;;;8.18;5.50;;;-1.70;81.80;;;;;;5096381;28;20012;-79
2022/03/30 00:03:52;;;;;;;7.70;5.68;;;-1.70;81.70;;;;;;5092765;28;20497;-81
2022/03/30 00:06:18;;;;;;;9.23;5.72;;;-1.70;81.90;;;;;;5094952;28;20028;-80
2022/03/30 00:08:44;;;;;;;9.35;5.00;;;-1.70;82.00;;;;;;5094844;28;20021;-80
2022/03/30 00:11:11;;;;;;;8.82;5.78;;;-1.70;82.00;;;;;;5093044;28;20048;-80
2022/03/30 00:13:39;;;;;;;8.45;5.07;;;-1.60;82.20;;;;;;5094701;28;20027;-79
2022/03/30 00:16:06;;;;;;;6.30;4.85;;;-1.60;82.50;;;;;;5094471;28;20036;-78
2022/03/30 00:18:33;;;;;;;7.78;5.68;;;-1.70;82.50;;;;;;5094524;28;20031;-77
2022/03/30 00:20:59;;;;;;;8.90;6.50;;;-1.70;82.70;;;;;;5093644;28;20028;-78
2022/03/30 00:23:25;;;;;;;9.20;5.38;;;-1.70;83.00;;;;;;5094234;28;20257;-77
2022/03/30 00:25:50;;;;;;;6.00;5.43;;;-1.60;83.30;;;;;;5094433;28;20026;-78
2022/03/30 00:28:16;;;;;;;7.80;6.25;;;-1.70;83.30;;;;;;5094196;28;20485;-78
2022/03/30 00:30:51;;;;;;;9.27;5.40;;;-1.60;83.50;;;;;;5093209;28;20039;-79
2022/03/30 00:33:17;;;;;;;8.82;6.30;;;-1.60;83.40;;;;;;5092904;28;20024;-78
2022/03/30 00:35:43;;;;;;;9.38;6.20;;;-1.60;83.40;;;;;;5095046;28;20030;-79
2022/03/30 00:38:09;;;;;;;8.10;6.18;;;-1.60;83.60;;;;;;5093315;28;20028;-78
2022/03/30 00:40:35;;;;;;;9.25;5.50;;;-1.70;83.90;;;;;;5094163;28;20023;-78
2022/03/30 00:43:00;;;;;;;7.32;5.80;;;-1.70;84.00;;;;;;5094142;28;20031;-79
2022/03/30 00:45:26;;;;;;;7.80;5.38;;;-1.70;84.10;;;;;;5094078;28;20056;-78
2022/03/30 00:47:52;;;;;;;8.07;5.80;;;-1.70;84.30;;;;;;5093961;28;20058;-79
2022/03/30 00:50:21;;;;;;;8.75;6.10;;;-1.70;84.30;;;;;;5091454;28;20036;-78
2022/03/30 00:52:50;;;;;;;10.20;5.53;;;-1.70;84.30;;;;;;5093664;28;20020;-79
2022/03/30 00:55:17;;;;;;;7.65;5.55;;;-1.70;84.30;;;;;;5093916;28;20512;-78
2022/03/30 00:57:45;;;;;;;7.57;4.82;;;-1.70;83.70;;;;;;5094289;28;20016;-79
2022/03/30 01:00:14;;;;;;;5.63;4.47;;;-1.70;82.80;;;;;;5096559;28;20020;-78
2022/03/30 01:02:43;;;;;;;6.03;3.55;;;-1.70;82.50;;;;;;5095963;28;20030;-79
2022/03/30 01:05:09;;;;;;;6.50;3.78;;;-1.80;82.50;;;;;;5093724;28;20085;-79
2022/03/30 01:07:35;;;;;;;7.85;4.97;;;-1.80;82.40;;;;;;5092465;28;20026;-79
2022/03/30 01:10:03;;;;;;;6.45;4.88;;;-1.80;82.50;;;;;;5093389;28;20048;-79
2022/03/30 01:12:31;;;;;;;6.95;4.43;;;-1.80;82.40;;;;;;5093696;28;20028;-80
2022/03/30 01:15:00;;;;;;;7.68;5.43;;;-1.80;82.60;;;;;;5093937;28;20020;-80
2022/03/30 01:17:26;;;;;;;9.63;6.05;;;-1.90;82.80;;;;;;5093763;28;20030;-79
2022/03/30 01:19:52;;;;;;;13.00;5.07;;;-1.80;83.00;;;;;;5092259;28;20031;-78
2022/03/30 01:22:18;;;;;;;6.65;5.28;;;-1.90;83.10;;;;;;5092396;28;20020;-79
2022/03/30 01:24:44;;;;;;;9.25;5.65;;;-1.80;83.40;;;;;;5093076;28;20024;-79
2022/03/30 01:27:11;;;;;;;5.35;4.47;;;-1.80;83.90;;;;;;5093230;28;20028;-78
2022/03/30 01:32:28;;;;;;;8.40;6.45;;;-1.90;84.80;;;;;;5093185;28;20400;-78
2022/03/30 01:34:59;;;;;;;8.60;6.00;;;-1.90;85.20;;;;;;5092921;28;20032;-78
2022/03/30 01:37:28;;;;;;;6.63;4.90;;;-1.90;85.50;;;;;;5091750;28;20138;-78
2022/03/30 01:39:55;;;;;;;9.00;5.82;;;-1.90;85.60;;;;;;5092980;28;20021;-79
2022/03/30 01:42:21;;;;;;;11.40;6.07;;;-1.90;86.00;;;;;;5094968;28;20028;-77
2022/03/30 01:44:48;;;;;;;6.30;5.30;;;-1.90;86.10;;;;;;5097051;28;20035;-79
2022/03/30 01:47:14;;;;;;;7.78;5.22;;;-1.90;86.10;;;;;;5094255;28;20052;-77
2022/03/30 01:49:41;;;;;;;9.50;5.47;;;-1.80;86.30;;;;;;5092687;28;20052;-78
2022/03/30 01:52:08;;;;;;;9.07;5.68;;;-1.90;86.60;;;;;;5092635;28;20488;-78
2022/03/30 01:54:39;;;;;;;7.72;6.10;;;-1.90;86.90;;;;;;5091881;28;20020;-81
2022/03/30 01:57:06;;;;;;;9.32;5.97;;;-1.90;87.20;;;;;;5092633;28;20027;-78
2022/03/30 01:59:33;;;;;;;8.23;5.35;;;-2.00;87.40;;;;;;5092593;28;20024;-80
2022/03/30 02:02:00;;;;;;;11.15;6.15;;;-2.00;87.70;;;;;;5092543;28;20038;-76
2022/03/30 02:04:26;;;;;;;6.07;5.32;;;-2.00;88.00;;;;;;5092387;28;20024;-79
2022/03/30 02:06:52;;;;;;;10.75;6.43;;;-2.00;88.10;;;;;;5092557;28;20028;-79
2022/03/30 02:09:18;;;;;;;8.63;6.70;;;-2.00;88.10;;;;;;5091219;28;20179;-79
2022/03/30 02:11:45;;;;;;;11.95;7.35;;;-2.00;88.30;;;;;;5092442;28;20048;-79
2022/03/30 02:14:11;;;;;;;9.98;5.45;;;-2.00;88.50;;;;;;5092272;28;20039;-79
2022/03/30 02:16:36;;;;;;;8.10;5.80;;;-2.00;88.60;;;;;;5091302;28;20024;-78
2022/03/30 02:19:03;;;;;;;10.93;6.13;;;-2.00;88.70;;;;;;5092270;28;20419;-78
2022/03/30 02:21:29;;;;;;;11.80;6.80;;;-2.10;88.80;;;;;;5092190;28;20020;-78
2022/03/30 02:23:55;;;;;;;7.65;6.35;;;-2.00;89.10;;;;;;5092279;28;20101;-79
2022/03/30 02:26:20;;;;;;;8.15;5.78;;;-2.00;89.20;;;;;;5091249;28;20043;-80
2022/03/30 02:28:53;;;;;;;9.95;5.88;;;-1.90;89.40;;;;;;5091083;28;20572;-78
2022/03/30 02:31:20;;;;;;;8.48;6.22;;;-2.00;89.30;;;;;;5092118;28;20063;-80
2022/03/30 02:33:46;;;;;;;7.82;5.72;;;-2.10;89.20;;;;;;5092145;28;20044;-78
2022/03/30 02:36:13;;;;;;;9.82;6.22;;;-2.20;89.60;;;;;;5092076;28;20064;-79
2022/03/30 02:38:39;;;;;;;9.20;5.65;;;-2.20;89.80;;;;;;5092033;28;20024;-78
2022/03/30 02:41:06;;;;;;;10.60;6.10;;;-2.20;89.90;;;;;;5092124;28;20035;-78
2022/03/30 02:43:33;;;;;;;9.55;6.82;;;-2.20;90.00;;;;;;5091525;28;20046;-76
2022/03/30 02:45:59;;;;;;;8.63;6.57;;;-2.20;90.20;;;;;;5092398;28;20028;-78
2022/03/30 02:48:28;;;;;;;7.75;5.20;;;-2.20;90.20;;;;;;5093000;28;20031;-77
2022/03/30 02:50:56;;;;;;;7.95;5.50;;;-2.20;90.10;;;;;;5092439;28;20055;-79
2022/03/30 02:53:23;;;;;;;8.05;5.25;;;-2.30;90.00;;;;;;5092172;28;20448;-78
2022/03/30 02:55:49;;;;;;;10.33;6.13;;;-2.30;90.00;;;;;;5095814;28;20039;-80
2022/03/30 02:58:15;;;;;;;7.00;5.10;;;-2.30;90.00;;;;;;5095843;28;20025;-77
2022/03/30 03:00:42;;;;;;;5.45;4.82;;;-2.30;89.80;;;;;;5094112;28;20020;-78
2022/03/30 03:03:09;;;;;;;9.75;5.35;;;-2.30;89.50;;;;;;5095642;28;20031;-78
2022/03/30 03:05:38;;;;;;;7.85;4.88;;;-2.30;89.30;;;;;;5095791;28;20123;-79
2022/03/30 03:08:06;;;;;;;6.20;5.13;;;-2.30;88.80;;;;;;5095729;28;20052;-79
2022/03/30 03:10:33;;;;;;;;;;;-2.40;88.00;;;;;;5094811;28;20136;-78
2022/03/30 03:12:58;;;;;;;7.55;4.20;;;-2.40;87.80;;;;;;5095616;28;20375;-79
2022/03/30 03:15:24;;;;;;;4.82;3.90;;;-2.50;87.50;;;;;;5095764;28;20036;-77
2022/03/30 03:17:51;;;;;;;6.03;4.18;;;-2.50;87.40;;;;;;5094298;28;20032;-77
2022/03/30 03:20:17;;;;;;;4.77;3.93;;;-2.60;86.80;;;;;;5095512;28;20027;-79
2022/03/30 03:22:43;;;;;;;7.25;3.40;;;-2.60;87.00;;;;;;5095398;28;20067;-78
2022/03/30 03:25:10;;;;;;;7.65;4.05;;;-2.60;86.70;;;;;;5095837;28;20048;-78
2022/03/30 03:27:37;;;;;;;7.50;2.78;;;-2.60;86.30;;;;;;5095704;28;20098;-79
2022/03/30 03:30:04;;;;;;;5.25;4.07;;;-2.60;85.30;;;;;;5094266;28;20065;-79
2022/03/30 03:32:31;;;;;;;11.27;4.38;;;-2.70;84.90;;;;;;5095880;28;20020;-79
2022/03/30 03:34:56;;;;;;;7.80;3.60;;;-2.80;84.90;;;;;;5095544;28;20553;-80
2022/03/30 03:37:25;;;;;;;7.40;3.85;;;-2.80;85.10;;;;;;5098742;28;20020;-78
2022/03/30 03:39:51;;;;;;;6.82;4.00;;;-2.90;85.30;;;;;;5098134;28;20024;-79
2022/03/30 03:42:17;;;;;;;6.03;4.40;;;-2.90;85.90;;;;;;5093763;28;20801;-79
2022/03/30 03:44:43;;;;;;;6.55;3.80;;;-2.90;86.20;;;;;;5077227;28;20032;-79
2022/03/30 03:47:09;;;;;;;7.43;4.65;;;-2.90;85.80;;;;;;5075109;28;20043;-79
2022/03/30 03:49:39;;;;;;;6.57;5.00;;;-2.80;86.00;;;;;;5085922;28;20032;-79
2022/03/30 03:52:06;;;;;;;5.53;4.32;;;-2.80;86.00;;;;;;5095633;28;20032;-80
2022/03/30 03:54:32;;;;;;;11.65;5.75;;;-2.80;86.00;;;;;;5098258;28;20020;-80
2022/03/30 03:56:58;;;;;;;8.70;4.80;;;-2.90;85.90;;;;;;5095836;28;20036;-79
2022/03/30 03:59:24;;;;;;;4.93;3.92;;;-2.90;86.00;;;;;;5095644;28;20034;-78
2022/03/30 04:01:50;;;;;;;7.45;5.05;;;-2.90;86.20;;;;;;5094808;28;20095;-79
2022/03/30 04:04:17;;;;;;;8.70;5.25;;;-2.90;86.00;;;;;;5093899;28;20460;-79
2022/03/30 04:06:43;;;;;;;6.43;4.97;;;-2.90;85.90;;;;;;5093573;28;20024;-77
2022/03/30 04:09:08;;;;;;;6.30;5.35;;;-2.90;86.00;;;;;;5095040;28;20050;-78
2022/03/30 04:11:34;;;;;;;8.57;6.43;;;-2.90;86.20;;;;;;5097017;28;20039;-78
2022/03/30 04:14:00;;;;;;;12.25;5.38;;;-2.90;86.30;;;;;;5097168;28;20081;-79
2022/03/30 04:16:26;;;;;;;8.80;6.15;;;-2.90;86.20;;;;;;5087010;28;20060;-78
2022/03/30 04:18:52;;;;;;;11.43;5.55;;;-2.90;86.00;;;;;;5076018;28;20600;-80
2022/03/30 04:21:18;;;;;;;7.65;6.18;;;-2.90;86.00;;;;;;5077782;28;20033;-79
2022/03/30 04:23:44;;;;;;;10.23;5.43;;;-2.80;86.00;;;;;;5074450;28;20059;-80
2022/03/30 04:26:11;;;;;;;13.25;5.88;;;-2.80;85.80;;;;;;5074172;28;20031;-81
2022/03/30 04:28:40;;;;;;;9.98;5.00;;;-2.80;85.60;;;;;;5074342;28;20482;-79
2022/03/30 04:31:10;;;;;;;6.80;4.57;;;-2.90;85.60;;;;;;5074083;28;20047;-83
2022/03/30 04:33:37;;;;;;;7.85;5.72;;;-2.90;85.80;;;;;;5079886;28;20026;-80
2022/03/30 04:36:04;;;;;;;8.27;5.43;;;-2.90;86.00;;;;;;5092898;28;20032;-80
2022/03/30 04:38:30;;;;;;;6.20;5.60;;;-2.70;87.50;;;;;;5094123;28;20310;-80
2022/03/30 04:40:56;;;;;;;8.02;5.78;;;-2.20;87.60;;;;;;5094033;28;20035;-82
2022/03/30 04:43:22;;;;;;;7.72;5.00;;;-1.40;87.30;;;;;;5094140;28;20016;-81
2022/03/30 04:45:48;;;;;;;7.53;5.43;;;-0.70;84.30;;;;;;5094094;28;20089;-80
2022/03/30 04:48:14;;;;;;;4.55;4.10;;;-0.30;81.60;;;;;;5094192;28;20028;-81
2022/03/30 04:50:40;;;;;;;9.25;5.28;;;-0.20;79.10;;;;;;5093315;28;20118;-79
2022/03/30 04:53:05;;;;;;;8.35;4.28;;;-0.60;77.40;;;;;;5092578;28;20481;-79
2022/03/30 04:55:32;;;;;;;12.57;6.20;;;-1.10;77.90;;;;;;5093964;28;20024;-80
2022/03/30 04:57:58;;;;;;;7.15;5.03;;;-1.50;78.80;;;;;;5093644;28;20024;-79
2022/03/30 05:00:24;;;;;;;6.65;3.85;;;-1.80;79.60;;;;;;5093923;28;20028;-81
2022/03/30 05:02:50;;;;;;;7.95;4.47;;;-2.00;80.40;;;;;;5094365;28;20024;-80
2022/03/30 05:05:16;;;;;;;3.95;3.55;;;-2.10;80.70;;;;;;5093699;28;20027;-78
2022/03/30 05:07:42;;;;;;;3.60;2.55;;;-2.20;81.00;;;;;;5092910;28;20069;-79
2022/03/30 05:10:12;;;;;;;7.95;4.53;;;-2.20;81.60;;;;;;5094054;28;20044;-79
2022/03/30 05:12:38;;;;;;;8.65;4.75;;;-2.20;82.10;;;;;;5093439;28;20119;-79
2022/03/30 05:15:04;;;;;;;4.75;3.45;;;-2.10;82.20;;;;;;5093466;28;20016;-80
2022/03/30 05:17:30;;;;;;;8.90;4.50;;;-2.10;81.90;;;;;;5092966;28;20024;-78
2022/03/30 05:19:58;;;;;;;10.70;5.22;;;-2.10;81.80;;;;;;5093081;28;20015;-80
2022/03/30 05:22:27;;;;;;;6.78;4.60;;;-2.00;82.10;;;;;;5089957;28;20028;-80
2022/03/30 05:24:53;;;;;;;4.38;3.78;;;-2.00;81.80;;;;;;5071577;28;20059;-81
2022/03/30 05:27:19;;;;;;;10.32;5.75;;;-1.80;81.90;;;;;;5071962;28;20455;-79
2022/03/30 05:29:44;;;;;;;10.15;4.70;;;-1.80;81.80;;;;;;5072429;28;20029;-83
2022/03/30 05:32:10;;;;;;;7.10;4.63;;;-1.80;81.30;;;;;;5073614;28;20525;-81
2022/03/30 05:34:36;;;;;;;7.93;4.18;;;-1.70;81.10;;;;;;5071954;28;20393;-78
2022/03/30 05:37:03;;;;;;;6.90;4.22;;;-1.80;80.90;;;;;;5072734;28;20463;-79
2022/03/30 05:39:30;;;;;;;8.25;4.78;;;-1.80;81.20;;;;;;5072231;28;20029;-78
2022/03/30 05:41:56;;;;;;;6.68;4.15;;;-1.70;81.00;;;;;;5093055;28;20024;-80
2022/03/30 05:44:21;;;;;;;8.25;3.78;;;-1.70;80.50;;;;;;5092414;28;20024;-80
2022/03/30 05:46:48;;;;;;;5.97;4.15;;;-1.80;80.00;;;;;;5092325;28;20027;-79
2022/03/30 05:49:13;;;;;;;7.22;3.40;;;-1.90;79.30;;;;;;5092314;28;20471;-79
2022/03/30 05:51:39;;;;;;;8.05;4.45;;;-1.90;79.40;;;;;;5091071;28;20024;-79
2022/03/30 05:54:05;;;;;;;6.15;4.22;;;-1.80;79.80;;;;;;5092014;28;20477;-81
2022/03/30 05:59:15;;;;;;;8.45;4.47;;;-1.80;79.10;;;;;;5093763;28;20051;-82
2022/03/30 06:01:42;;;;;;;5.20;4.05;;;-1.70;79.20;;;;;;5095900;28;20028;-80
2022/03/30 06:04:07;;;;;;;8.05;4.55;;;-1.60;79.10;;;;;;5096547;28;20032;-80
2022/03/30 06:06:34;;;;;;;5.68;4.20;;;-1.40;78.50;;;;;;5092823;28;20261;-80
2022/03/30 06:09:03;;;;;;;7.43;4.15;;;-1.30;77.10;;;;;;5092012;28;20056;-77
2022/03/30 06:11:28;;;;;;;3.47;3.00;;;-1.30;77.00;;;;;;5091778;28;20074;-77
2022/03/30 06:13:58;;;;;;;8.32;3.58;;;-1.30;76.80;;;;;;5092240;28;20477;-77
2022/03/30 06:16:27;;;;;;;6.38;4.30;;;-1.30;76.70;;;;;;5092163;28;20050;-77
2022/03/30 06:18:54;;;;;;;7.57;3.55;;;-1.20;76.40;;;;;;5092117;28;20026;-78
2022/03/30 06:21:20;;;;;;;6.43;5.13;;;-1.20;76.50;;;;;;5089798;28;20051;-75
2022/03/30 06:23:46;;;;;;;7.50;4.80;;;-1.20;75.80;;;;;;5092011;28;20257;-76
2022/03/30 06:26:12;;;;;;;5.57;3.47;;;-1.10;75.80;;;;;;5092131;28;20535;-76
2022/03/30 06:28:38;;;;;;;4.38;3.47;;;-1.00;75.20;;;;;;5091154;28;20477;-77
2022/03/30 06:31:04;;;;;;;6.43;3.88;;;-1.00;74.30;;;;;;5091556;28;20036;-77
2022/03/30 06:33:30;;;;;;;4.93;3.45;;;-1.20;73.70;;;;;;5090201;28;20024;-76
2022/03/30 06:35:56;;;;;;;5.78;3.20;;;-1.20;74.60;;;;;;5091955;28;20028;-78
2022/03/30 06:38:22;;;;;;;4.65;3.10;;;-1.20;74.40;;;;;;5090777;28;20024;-80
2022/03/30 06:40:48;;;;;;;4.78;3.15;;;-1.00;74.00;;;;;;5091895;28;20515;-77
2022/03/30 06:43:17;;;;;;;5.72;3.95;;;-1.00;72.90;;;;;;5090646;28;20028;-78
2022/03/30 06:45:44;;;;;;;5.15;3.17;;;-0.90;72.30;;;;;;5091941;28;20028;-77
2022/03/30 06:48:11;;;;;;;6.03;4.28;;;-0.80;72.10;;;;;;5091918;28;20103;-77
2022/03/30 06:50:37;;;;;;;5.88;3.45;;;-0.70;70.90;;;;;;5091764;28;20546;-78
2022/03/30 06:53:05;;;;;;;5.53;2.70;;;-0.60;70.60;;;;;;5091180;28;20060;-80
2022/03/30 06:55:31;;;;;;;5.18;3.17;;;-0.60;69.60;;;;;;5092113;28;20046;-77
2022/03/30 06:57:57;;;;;;;10.20;4.80;;;-0.50;69.70;;;;;;5091883;28;20016;-78
2022/03/30 07:00:23;;;;;;;3.70;2.90;;;-0.30;69.50;;;;;;5092105;28;20016;-77
2022/03/30 07:02:49;;;;;;;11.80;4.15;;;-0.10;68.50;;;;;;5091928;28;20035;-77
2022/03/30 07:05:14;;;;;;;5.05;3.00;;;-0.10;67.20;;;;;;5091712;28;20020;-77
2022/03/30 07:10:27;;;;;;;9.00;3.70;;;-0.10;66.90;;;;;;5090656;28;20059;-77
2022/03/30 07:12:53;;;;;;;4.78;3.10;;;0.20;67.60;;;;;;5091684;28;20024;-75
2022/03/30 07:15:20;;;;;;;8.38;2.70;;;0.30;65.80;;;;;;5090283;28;20400;-78
2022/03/30 07:17:55;;;;;;;3.65;2.50;;;0.30;65.60;;;;;;5091456;28;20020;-79
2022/03/30 07:20:22;;;;;;;9.25;2.60;;;0.60;65.00;;;;;;5090464;28;20035;-78
2022/03/30 07:22:48;;;;;;;;;;;0.70;63.50;;;;;;5092194;28;20024;-77
2022/03/30 07:25:16;;;;;;;4.28;2.60;;;1.10;64.20;;;;;;5091738;28;19914;-76
2022/03/30 07:27:43;;;;;;;4.90;1.98;;;1.00;61.30;;;;;;5090822;28;20024;-77
2022/03/30 07:30:11;;;;;;;3.78;2.17;;;0.60;61.10;;;;;;5091513;28;20043;-77
2022/03/30 07:32:39;;;;;;;4.88;2.85;;;0.40;61.70;;;;;;5090385;28;20111;-79
2022/03/30 07:35:06;;;;;;;4.57;2.72;;;1.10;63.20;;;;;;5090138;28;20042;-77
2022/03/30 07:37:32;;;;;;;9.30;2.70;;;1.60;61.40;;;;;;5071466;28;20020;-76
2022/03/30 07:39:59;;;;;;;4.72;2.97;;;1.60;58.70;;;;;;5070817;28;20039;-76
2022/03/30 07:42:25;;;;;;;5.57;3.35;;;2.20;60.30;;;;;;5075311;28;20020;-77
2022/03/30 07:44:51;;;;;;;8.23;3.40;;;2.70;57.20;;;;;;5093635;28;20028;-77
2022/03/30 07:47:18;;;;;;;4.55;3.30;;;2.50;55.30;;;;;;5095483;28;20032;-78
2022/03/30 07:49:44;;;;;;;6.32;3.58;;;2.10;56.40;;;;;;5095172;28;20488;-77
2022/03/30 07:52:10;;;;;;;5.78;2.75;;;2.60;58.10;;;;;;5095107;28;20040;-78
2022/03/30 07:54:36;;;;;;;3.70;2.90;;;3.10;55.80;;;;;;5095293;28;20067;-79
2022/03/30 07:57:02;;;;;;;4.05;2.97;;;3.30;55.70;;;;;;5096709;28;20202;-75
2022/03/30 07:59:28;;;;;;;3.97;2.45;;;4.80;56.20;;;;;;5096189;28;20469;-77
2022/03/30 08:01:58;;;;;;;7.28;3.83;;;7.00;49.80;;;;;;5092663;28;20035;-80
2022/03/30 08:04:24;;;;;;;4.22;3.10;;;8.00;45.50;;;;;;5095072;28;20384;-79
2022/03/30 08:06:50;;;;;;;5.22;2.67;;;9.70;44.40;;;;;;5094973;28;20107;-79
2022/03/30 08:09:16;;;;;;;6.07;2.85;;;11.50;41.60;;;;;;5094518;28;20032;-77
2022/03/30 08:11:50;;;;;;;5.30;2.60;;;12.90;38.30;;;;;;5095198;28;20035;-80
2022/03/30 08:14:15;;;;;;;4.07;2.28;;;12.40;35.70;;;;;;5095335;28;20103;-79
2022/03/30 08:16:41;;;;;;;2.80;2.30;;;11.90;35.80;;;;;;5095502;28;20048;-79
2022/03/30 08:19:08;;;;;;;6.07;3.28;;;11.60;36.30;;;;;;5093940;28;20421;-77
2022/03/30 08:24:19;;;;;;;6.05;2.75;;;13.30;35.50;;;;;;5094657;28;20039;-78
2022/03/30 08:26:45;;;;;;;3.67;2.72;;;14.20;32.90;;;;;;5094487;28;20047;-79
2022/03/30 08:29:11;;;;;;;5.68;2.65;;;14.10;32.60;;;;;;5094360;28;20036;-77
2022/03/30 08:31:37;;;;;;;9.35;2.70;;;13.70;31.20;;;;;;5092851;28;20425;-79
2022/03/30 08:34:03;;;;;;;1.98;1.55;;;13.40;32.10;;;;;;5094313;28;20106;-77
2022/03/30 08:36:29;;;;;;;7.50;3.20;;;13.80;31.70;;;;;;5093115;28;20494;-78
2022/03/30 08:39:00;;;;;;;3.33;2.00;;;14.10;30.80;;;;;;5092459;28;20476;-77
2022/03/30 08:41:26;;;;;;;4.70;2.75;;;13.90;30.30;;;;;;5094147;28;20028;-77
2022/03/30 08:43:52;;;;;;;3.03;2.10;;;12.10;31.90;;;;;;5094071;28;20485;-77
2022/03/30 08:46:18;;;;;;;5.30;2.85;;;10.70;32.80;;;;;;5094046;28;20020;-76
2022/03/30 08:48:44;;;;;;;5.57;2.65;;;9.50;34.60;;;;;;5094326;28;20035;-78
2022/03/30 08:51:10;;;;;;;5.03;2.03;;;8.50;35.50;;;;;;5092643;28;20036;-79
2022/03/30 08:53:36;;;;;;;5.25;2.28;;;7.60;36.60;;;;;;5093186;28;20157;-78
2022/03/30 08:56:03;;;;;;;11.07;4.35;;;7.70;37.60;;;;;;5093716;28;20031;-76
2022/03/30 08:58:29;;;;;;;7.88;3.15;;;7.70;37.60;;;;;;5092336;28;20031;-76
2022/03/30 09:01:07;;;;;;;4.68;2.42;;;8.10;37.40;;;;;;5093598;28;20480;-78
2022/03/30 09:03:33;;;;;;;4.45;1.92;;;9.60;37.20;;;;;;5092259;28;20086;-78
2022/03/30 09:06:00;;;;;;;2.35;1.73;;;10.30;35.70;;;;;;5093260;28;20016;-79
2022/03/30 09:08:27;;;;;;;3.80;1.80;;;12.10;34.00;;;;;;5092386;28;20123;-81
2022/03/30 09:10:58;;;;;;;12.15;2.17;;;13.30;31.60;;;;;;5092347;28;20048;-77
2022/03/30 09:13:24;;;;;;;3.42;2.15;;;12.40;30.30;;;;;;5093400;28;20024;-78
2022/03/30 09:15:51;;;;;;;6.13;2.40;;;10.90;31.30;;;;;;5091198;28;20342;-78
2022/03/30 09:18:17;;;;;;;;;;;9.70;32.60;;;;;;5093780;28;20028;-76
2022/03/30 09:20:46;;;;;;;5.03;2.00;;;8.30;33.90;;;;;;5092048;28;19969;-78
2022/03/30 09:23:14;;;;;;;3.05;2.10;;;8.20;35.60;;;;;;5093324;28;20024;-78
2022/03/30 09:25:47;;;;;;;5.53;1.50;;;8.90;33.80;;;;;;5093132;28;20063;-77
2022/03/30 09:28:15;;;;;;;3.50;2.25;;;8.80;33.60;;;;;;5093111;28;20435;-77
2022/03/30 09:30:41;;;;;;;6.13;2.40;;;8.20;34.00;;;;;;5092164;28;20366;-77
2022/03/30 09:33:10;;;;;;;7.47;2.45;;;7.20;35.50;;;;;;5092866;28;20027;-76
2022/03/30 09:35:38;;;;;;;3.13;2.10;;;7.50;36.30;;;;;;5092870;28;20031;-76
2022/03/30 09:38:10;;;;;;;2.63;2.30;;;7.80;35.50;;;;;;5091486;28;20035;-77
2022/03/30 09:40:42;;;;;;;6.70;3.13;;;6.60;36.10;;;;;;5092838;28;20032;-78
2022/03/30 09:43:17;;;;;;;4.53;2.30;;;5.90;37.60;;;;;;5092929;28;20020;-78
2022/03/30 09:45:44;;;;;;;5.95;3.03;;;5.90;38.60;;;;;;5092994;28;20563;-77
2022/03/30 09:48:22;;;;;;;3.78;2.38;;;6.40;39.20;;;;;;5091940;28;20055;-78
2022/03/30 09:50:52;;;;;;;;;;;7.30;37.50;;;;;;5091976;28;20062;-77
2022/03/30 09:53:21;;;;;;;5.53;1.55;;;7.30;37.20;;;;;;5092700;28;19992;-76
2022/03/30 09:56:07;;;;;;;6.10;2.38;;;6.40;36.70;;;;;;5092879;28;20330;-76
2022/03/30 09:58:37;;;;;;;10.15;2.33;;;5.70;38.20;;;;;;5093286;28;20056;-78
2022/03/30 10:01:08;;;;;;;4.82;1.90;;;5.20;39.20;;;;;;5093444;28;20051;-77
2022/03/30 10:03:50;;;;;;;3.78;2.50;;;5.20;39.50;;;;;;5093901;28;20047;-78
2022/03/30 10:06:40;;;;;;;5.47;2.83;;;4.90;39.90;;;;;;5092369;28;20024;-79
2022/03/30 10:09:06;;;;;;;2.65;1.88;;;4.50;41.70;;;;;;5092773;28;20020;-77
2022/03/30 10:11:32;;;;;;;4.47;2.10;;;3.90;42.40;;;;;;5091498;28;20047;-78
2022/03/30 10:14:05;;;;;;;4.35;2.92;;;3.50;43.40;;;;;;5092696;28;20525;-77
2022/03/30 10:16:31;;;;;;;5.28;2.80;;;3.00;44.40;;;;;;5092744;28;20110;-78
2022/03/30 10:18:56;;;;;;;5.20;2.30;;;2.80;45.10;;;;;;5091633;28;20051;-77
2022/03/30 10:21:31;;;;;;;3.55;2.35;;;2.70;45.30;;;;;;5092453;28;20075;-78
2022/03/30 10:24:22;;;;;;;9.32;3.28;;;2.80;45.60;;;;;;5092850;28;20503;-79
2022/03/30 10:27:09;;;;;;;6.90;2.65;;;2.80;46.50;;;;;;5092702;28;20030;-77
2022/03/30 10:29:36;;;;;;;4.47;3.22;;;2.90;47.10;;;;;;5091001;28;20016;-78
2022/03/30 10:32:18;;;;;;;6.30;3.00;;;2.70;47.20;;;;;;5090715;28;20020;-78
2022/03/30 10:35:12;;;;;;;4.68;2.33;;;2.60;48.40;;;;;;5092119;28;20291;-78
2022/03/30 10:37:55;;;;;;;5.47;2.50;;;2.40;49.00;;;;;;5092326;28;20059;-77
2022/03/30 10:40:25;;;;;;;4.20;2.88;;;2.30;48.70;;;;;;5091861;28;20038;-79
2022/03/30 10:42:58;;;;;;;5.38;2.70;;;2.40;48.40;;;;;;5092061;28;20103;-77
2022/03/30 10:45:31;;;;;;;6.80;2.67;;;2.50;48.10;;;;;;5092058;28;20498;-78
2022/03/30 10:48:12;;;;;;;6.05;3.10;;;2.60;47.90;;;;;;5090687;28;20485;-78
2022/03/30 10:50:41;;;;;;;8.73;2.92;;;2.60;48.30;;;;;;5073043;28;20401;-77
2022/03/30 10:53:34;;;;;;;6.25;3.05;;;2.80;48.30;;;;;;5091935;28;20088;-77
2022/03/30 10:56:24;;;;;;;9.60;4.88;;;2.80;48.10;;;;;;5092242;28;20365;-78
2022/03/30 10:58:53;;;;;;;3.47;2.17;;;2.60;48.30;;;;;;5084363;28;20429;-76
2022/03/30 11:01:28;;;;;;;3.10;2.60;;;2.40;47.80;;;;;;5092280;28;20469;-77
2022/03/30 11:03:59;;;;;;;8.88;3.17;;;2.20;47.60;;;;;;5091800;28;20089;-75
2022/03/30 11:06:26;;;;;;;3.28;1.95;;;2.10;48.50;;;;;;5092102;28;20108;-77
2022/03/30 11:08:56;;;;;;;3.28;2.08;;;2.20;47.50;;;;;;5090836;28;20024;-77
2022/03/30 11:11:45;;;;;;;5.28;3.05;;;2.20;47.30;;;;;;5090562;28;20052;-77
2022/03/30 11:14:32;;;;;;;2.65;1.77;;;2.40;47.90;;;;;;5086359;28;20036;-77
2022/03/30 11:17:06;;;;;;;6.60;2.00;;;2.70;46.40;;;;;;5093963;28;20111;-76
2022/03/30 11:19:47;;;;;;;3.85;2.00;;;2.80;45.90;;;;;;5094442;28;20136;-79
2022/03/30 11:22:15;;;;;;;6.65;2.72;;;3.00;45.30;;;;;;5094171;28;20461;-77
2022/03/30 11:25:07;;;;;;;3.78;2.28;;;3.10;45.30;;;;;;5093073;28;20025;-77
2022/03/30 11:27:33;;;;;;;12.73;1.83;;;3.20;45.60;;;;;;5094128;28;20034;-77
2022/03/30 11:30:03;;;;;;;3.88;1.60;;;3.10;46.00;;;;;;5095704;28;20154;-78
2022/03/30 11:32:37;;;;;;;2.42;2.17;;;3.00;44.60;;;;;;5095529;28;20110;-77
2022/03/30 11:35:12;;;;;;;1.70;1.27;;;3.10;44.80;;;;;;5095528;28;20512;-77
2022/03/30 11:37:49;;;;;;;2.70;2.20;;;3.30;44.40;;;;;;5095446;28;20027;-79
2022/03/30 11:40:19;;;;;;;2.90;2.50;;;3.50;43.40;;;;;;5095280;28;20024;-78
2022/03/30 11:42:51;;;;;;;7.07;2.17;;;3.60;43.20;;;;;;5092536;28;20048;-77
2022/03/30 11:45:20;;;;;;;4.15;1.90;;;3.40;43.30;;;;;;5094956;28;20032;-77
2022/03/30 11:47:50;;;;;;;2.70;1.90;;;3.20;43.30;;;;;;5095611;28;20400;-78
2022/03/30 11:50:30;;;;;;;6.28;2.30;;;3.10;43.40;;;;;;5094045;28;20125;-78
2022/03/30 11:53:00;;;;;;;4.07;1.90;;;3.10;43.80;;;;;;5094962;28;20477;-78
2022/03/30 11:55:29;;;;;;;2.60;1.60;;;3.20;43.00;;;;;;5095426;28;20043;-77
2022/03/30 11:57:57;;;;;;;2.60;2.13;;;3.10;42.40;;;;;;5094193;28;20094;-77
2022/03/30 12:00:25;;;;;;;1.83;1.60;;;3.00;42.60;;;;;;5095141;28;20039;-78
2022/03/30 12:02:55;;;;;;;1.70;1.52;;;2.90;42.10;;;;;;5095390;28;20020;-77
2022/03/30 12:05:22;;;;;;;2.63;1.80;;;2.80;42.30;;;;;;5094935;28;20020;-78
2022/03/30 12:07:53;;;;;;;2.63;2.17;;;2.70;42.70;;;;;;5094899;28;20390;-78
2022/03/30 12:10:19;;;;;;;3.63;2.42;;;2.60;43.40;;;;;;5094769;28;20044;-76
2022/03/30 12:12:45;;;;;;;7.35;1.80;;;2.60;43.80;;;;;;5094713;28;20024;-78
2022/03/30 12:15:17;;;;;;;7.57;2.17;;;2.70;45.00;;;;;;5094020;28;20020;-76
2022/03/30 12:17:50;;;;;;;6.10;2.33;;;2.90;44.50;;;;;;5094497;28;20032;-77
2022/03/30 12:20:34;;;;;;;5.38;2.75;;;3.10;43.90;;;;;;5093233;28;20082;-77
2022/03/30 12:23:04;;;;;;;2.97;1.70;;;3.30;43.90;;;;;;5093616;28;20028;-75
2022/03/30 12:25:44;;;;;;;3.92;2.05;;;3.50;42.60;;;;;;5094838;28;20020;-76
2022/03/30 12:28:10;;;;;;;2.80;1.67;;;3.40;41.40;;;;;;5093555;28;20019;-77
2022/03/30 12:30:38;;;;;;;3.60;1.50;;;3.30;41.40;;;;;;5093704;28;20081;-76
2022/03/30 12:33:04;;;;;;;3.75;1.60;;;3.40;41.40;;;;;;5095068;28;20054;-78
2022/03/30 12:35:33;;;;;;;2.15;1.60;;;3.40;40.90;;;;;;5096050;28;20012;-78
2022/03/30 12:38:11;;;;;;;3.55;1.80;;;3.50;40.50;;;;;;5095290;28;20028;-79
2022/03/30 12:40:43;;;;;;;4.82;1.83;;;3.50;40.30;;;;;;5093125;28;20048;-76
2022/03/30 12:43:10;;;;;;;4.55;2.22;;;3.40;41.50;;;;;;5094350;28;20020;-78
2022/03/30 12:45:53;;;;;;;1.27;1.17;;;3.60;41.80;;;;;;5094044;28;20042;-77
2022/03/30 12:48:26;;;;;;;1.35;1.00;;;3.70;39.40;;;;;;5093528;28;20117;-77
2022/03/30 12:50:52;;;;;;;1.20;0.82;;;3.50;38.40;;;;;;5094323;28;20051;-77
2022/03/30 12:53:20;;;;;;;1.98;1.35;;;3.30;38.40;;;;;;5094065;28;20027;-78
2022/03/30 12:55:51;;;;;;;1.88;1.10;;;3.10;38.90;;;;;;5075370;28;20024;-76
2022/03/30 12:58:20;;;;;;;2.85;1.13;;;2.90;39.30;;;;;;5094796;28;20031;-76
2022/03/30 13:00:54;;;;;;;2.72;1.55;;;2.70;39.30;;;;;;5096313;28;20550;-77
2022/03/30 13:03:29;;;;;;;4.70;1.17;;;2.70;39.50;;;;;;5094089;28;20024;-78
2022/03/30 13:06:09;;;;;;;0.90;0.85;;;2.70;39.80;;;;;;5092671;28;20043;-76
2022/03/30 13:08:39;;;;;;;4.80;1.17;;;2.60;39.60;;;;;;5093610;28;20027;-77